Milwaukee, Wisconsin
Current Conditions -  °F | °C
As of 7:52 PM on Wednesday 26 Nov 2014 (Local Time) from KMKE Reporting Station
Overcast Overcast  
Wind Chill: 17°   Ceiling: 3100
Heat Index: 27°   Visibility: 7mi
Dew Point: 20°   Wind: 10mph
Humidity: 75%   Direction: 320°NW
Pressure: 30.15"   Gusts: NA
Location:  43.04°N, 87.91°W
Report Text: KMKE 270152Z 32009KT 7SM OVC031 M03/M07 A3015 RMK AO2 SLP223 T10281067
Loading
Personal Weather Stations






























Interactive Weather Map New forecast layout! Learn more

10-Day Weather Forecast

Advertisements
Track Severe Weather on mobile